createdAt,value
2022-11-08T00:01:14.769Z,11.28
2022-11-08T00:03:40.873Z,11.28
2022-11-08T00:06:06.965Z,11.26
2022-11-08T00:08:33.056Z,11.23
2022-11-08T00:10:59.178Z,11.20
2022-11-08T00:13:25.265Z,11.17
2022-11-08T00:15:51.353Z,11.25
2022-11-08T00:18:17.571Z,11.23
2022-11-08T00:20:43.814Z,11.23
2022-11-08T00:23:09.908Z,11.20
2022-11-08T00:25:36.016Z,11.15
2022-11-08T00:28:02.113Z,11.15
2022-11-08T00:30:28.224Z,11.12
2022-11-08T00:32:54.351Z,11.07
2022-11-08T00:35:20.454Z,11.07
2022-11-08T00:37:46.556Z,11.08
2022-11-08T00:40:12.668Z,11.09
2022-11-08T00:42:38.769Z,11.09
2022-11-08T00:45:04.875Z,11.07
2022-11-08T00:47:30.997Z,11.05
2022-11-08T00:49:57.107Z,11.04
2022-11-08T00:52:23.202Z,11.00
2022-11-08T00:54:49.998Z,11.02
2022-11-08T00:57:16.091Z,11.01
2022-11-08T00:59:42.174Z,11.00
2022-11-08T01:02:08.326Z,11.02
2022-11-08T01:04:34.471Z,11.01
2022-11-08T01:07:00.567Z,11.01
2022-11-08T01:09:26.693Z,11.00
2022-11-08T01:11:52.804Z,11.05
2022-11-08T01:14:18.904Z,11.05
2022-11-08T01:16:45.017Z,11.05
2022-11-08T01:19:11.113Z,11.01
2022-11-08T01:21:37.214Z,11.08
2022-11-08T01:24:03.328Z,11.06
2022-11-08T01:26:29.452Z,11.11
2022-11-08T01:28:55.558Z,11.13
2022-11-08T01:31:21.678Z,11.12
2022-11-08T01:33:51.283Z,11.14
2022-11-08T01:36:17.757Z,11.17
2022-11-08T01:38:43.865Z,11.15
2022-11-08T01:41:09.972Z,11.19
2022-11-08T01:43:36.067Z,11.17
2022-11-08T01:46:02.201Z,11.22
2022-11-08T01:48:28.294Z,11.27
2022-11-08T01:50:54.394Z,11.29
2022-11-08T01:53:20.523Z,11.28
2022-11-08T01:55:46.618Z,11.32
2022-11-08T01:58:12.701Z,11.35
2022-11-08T02:00:39.413Z,11.36
2022-11-08T02:03:05.519Z,11.36
2022-11-08T02:05:31.608Z,11.38
2022-11-08T02:07:57.732Z,11.38
2022-11-08T02:10:23.827Z,11.39
2022-11-08T02:12:49.927Z,11.40
2022-11-08T02:15:16.055Z,11.47
2022-11-08T02:17:42.159Z,11.50
2022-11-08T02:20:08.250Z,11.52
2022-11-08T02:22:34.384Z,11.52
2022-11-08T02:25:00.516Z,11.58
2022-11-08T02:27:26.637Z,11.58
2022-11-08T02:29:52.753Z,11.62
2022-11-08T02:32:18.849Z,11.67
2022-11-08T02:34:44.940Z,11.67
2022-11-08T02:37:11.043Z,11.68
2022-11-08T02:39:37.141Z,11.67
2022-11-08T02:42:03.233Z,11.72
2022-11-08T02:44:29.701Z,11.73
2022-11-08T02:46:55.789Z,11.71
2022-11-08T02:49:21.875Z,11.71
2022-11-08T02:51:47.998Z,11.74
2022-11-08T02:54:14.105Z,11.78
2022-11-08T02:56:40.286Z,11.77
2022-11-08T02:59:06.383Z,11.76
2022-11-08T03:01:32.565Z,11.78
2022-11-08T03:03:58.733Z,11.76
2022-11-08T03:06:24.852Z,11.78
2022-11-08T03:08:50.956Z,11.76
2022-11-08T03:11:17.058Z,11.75
2022-11-08T03:13:43.172Z,11.78
2022-11-08T03:16:09.250Z,11.72
2022-11-08T03:18:35.356Z,11.72
2022-11-08T03:21:01.471Z,11.69
2022-11-08T03:23:27.562Z,11.61
2022-11-08T03:25:53.652Z,11.62
2022-11-08T03:28:22.829Z,11.57
2022-11-08T03:30:49.469Z,11.52
2022-11-08T03:33:15.566Z,11.45
2022-11-08T03:35:41.694Z,11.42
2022-11-08T03:38:07.797Z,11.43
2022-11-08T03:40:33.883Z,11.37
2022-11-08T03:42:59.988Z,11.38
2022-11-08T03:45:26.090Z,11.37
2022-11-08T03:47:52.184Z,11.31
2022-11-08T03:50:18.288Z,11.27
2022-11-08T03:52:44.390Z,11.28
2022-11-08T03:55:10.484Z,11.24
2022-11-08T03:57:36.597Z,11.23
2022-11-08T04:00:02.693Z,11.25
2022-11-08T04:02:28.811Z,11.21
2022-11-08T04:04:55.496Z,11.15
2022-11-08T04:07:21.603Z,11.16
2022-11-08T04:09:47.693Z,11.12
2022-11-08T04:12:13.818Z,11.13
2022-11-08T04:14:39.909Z,11.13
2022-11-08T04:17:06.007Z,11.12
2022-11-08T04:19:32.123Z,11.13
2022-11-08T04:21:58.220Z,11.13
2022-11-08T04:24:24.316Z,11.06
2022-11-08T04:26:50.428Z,11.03
2022-11-08T04:29:16.517Z,11.01
2022-11-08T04:31:42.621Z,10.98
2022-11-08T04:34:08.760Z,10.98
2022-11-08T04:36:34.851Z,10.95
2022-11-08T04:39:00.937Z,10.98
2022-11-08T04:41:27.057Z,10.97
2022-11-08T04:43:53.159Z,10.93
2022-11-08T04:46:19.263Z,10.91
2022-11-08T04:48:45.383Z,10.88
2022-11-08T04:51:11.474Z,10.88
2022-11-08T04:53:37.576Z,10.85
2022-11-08T04:56:03.686Z,10.85
2022-11-08T04:58:29.814Z,10.82
2022-11-08T05:00:55.923Z,10.82
2022-11-08T05:03:22.044Z,10.79
2022-11-08T05:05:48.147Z,10.69
2022-11-08T05:08:14.274Z,10.70
2022-11-08T05:10:40.738Z,10.70
2022-11-08T05:13:06.828Z,10.69
2022-11-08T05:15:32.927Z,10.64
2022-11-08T05:17:59.059Z,10.65
2022-11-08T05:20:25.157Z,10.62
2022-11-08T05:22:52.265Z,10.63
2022-11-08T05:25:18.408Z,10.60
2022-11-08T05:27:44.513Z,10.60
2022-11-08T05:30:10.608Z,10.55
2022-11-08T05:32:36.739Z,10.55
2022-11-08T05:35:02.832Z,10.53
2022-11-08T05:37:28.928Z,10.53
2022-11-08T05:39:55.049Z,10.56
2022-11-08T05:42:21.157Z,10.51
2022-11-08T05:44:47.247Z,10.53
2022-11-08T05:47:13.516Z,10.55
2022-11-08T05:49:39.609Z,10.55
2022-11-08T05:52:05.756Z,10.54
2022-11-08T05:54:31.873Z,10.51
2022-11-08T05:56:57.970Z,10.49
2022-11-08T05:59:24.114Z,10.49
2022-11-08T06:01:50.309Z,10.49
2022-11-08T06:04:16.442Z,10.51
2022-11-08T06:06:42.697Z,10.47
2022-11-08T06:09:08.821Z,10.52
2022-11-08T06:11:34.920Z,10.49
2022-11-08T06:14:01.025Z,10.55
2022-11-08T06:16:27.155Z,10.57
2022-11-08T06:18:53.333Z,10.55
2022-11-08T06:21:19.425Z,10.59
2022-11-08T06:23:45.536Z,10.60
2022-11-08T06:26:11.628Z,10.61
2022-11-08T06:28:37.719Z,10.61
2022-11-08T06:31:04.060Z,10.61
2022-11-08T06:33:30.166Z,10.63
2022-11-08T06:35:56.259Z,10.66
2022-11-08T06:38:22.400Z,10.66
2022-11-08T06:40:48.566Z,10.66
2022-11-08T06:43:19.375Z,10.71
2022-11-08T06:45:46.074Z,10.72
2022-11-08T06:48:12.160Z,10.76
2022-11-08T06:50:38.249Z,10.80
2022-11-08T06:53:04.372Z,10.79
2022-11-08T06:55:30.479Z,10.79
2022-11-08T06:57:56.600Z,10.83
2022-11-08T07:00:22.755Z,10.86
2022-11-08T07:02:48.999Z,10.85
2022-11-08T07:05:15.159Z,10.88
2022-11-08T07:07:41.266Z,10.93
2022-11-08T07:10:07.359Z,10.98
2022-11-08T07:12:33.465Z,11.01
2022-11-08T07:15:00.240Z,11.04
2022-11-08T07:17:26.336Z,11.01
2022-11-08T07:19:52.444Z,11.07
2022-11-08T07:22:18.553Z,11.09
2022-11-08T07:24:44.645Z,11.13
2022-11-08T07:27:10.727Z,11.17
2022-11-08T07:29:36.844Z,11.18
2022-11-08T07:32:02.944Z,11.22
2022-11-08T07:34:29.045Z,11.28
2022-11-08T07:36:55.163Z,11.31
2022-11-08T07:39:21.265Z,11.38
2022-11-08T07:41:47.352Z,11.40
2022-11-08T07:44:13.472Z,11.44
2022-11-08T07:46:39.576Z,11.51
2022-11-08T07:49:05.668Z,11.56
2022-11-08T07:51:31.770Z,11.62
2022-11-08T07:54:02.657Z,11.67
2022-11-08T07:56:29.229Z,11.70
2022-11-08T07:58:55.345Z,11.77
2022-11-08T08:01:21.445Z,11.83
2022-11-08T08:03:47.553Z,11.86
2022-11-08T08:06:13.671Z,11.92
2022-11-08T08:08:39.763Z,12.01
2022-11-08T08:11:05.938Z,12.06
2022-11-08T08:13:32.060Z,12.11
2022-11-08T08:15:58.139Z,12.18
2022-11-08T08:18:24.241Z,12.23
2022-11-08T08:20:50.394Z,12.28
2022-11-08T08:23:16.688Z,12.32
2022-11-08T08:25:43.031Z,12.35
2022-11-08T08:28:09.156Z,12.41
2022-11-08T08:30:35.258Z,12.48
2022-11-08T08:33:26.437Z,12.59
2022-11-08T08:35:47.473Z,12.62
2022-11-08T08:38:13.577Z,12.70
2022-11-08T08:40:39.669Z,12.77
2022-11-08T08:43:05.776Z,12.82
2022-11-08T08:45:31.864Z,12.88
2022-11-08T08:47:57.957Z,12.99
2022-11-08T08:50:24.066Z,13.03
2022-11-08T08:52:50.165Z,13.13
2022-11-08T08:55:16.255Z,13.13
2022-11-08T08:57:42.371Z,13.21
2022-11-08T09:02:54.600Z,13.31
2022-11-08T09:05:20.764Z,13.38
2022-11-08T09:07:46.867Z,13.42
2022-11-08T09:10:12.975Z,13.45
2022-11-08T09:12:39.083Z,13.48
2022-11-08T09:15:05.195Z,13.47
2022-11-08T09:17:32.121Z,13.54
2022-11-08T09:19:58.280Z,13.54
2022-11-08T09:22:24.396Z,13.59
2022-11-08T09:24:50.511Z,13.69
2022-11-08T09:27:16.625Z,13.75
2022-11-08T09:29:42.706Z,13.78
2022-11-08T09:32:08.828Z,13.77
2022-11-08T09:34:34.937Z,13.84
2022-11-08T09:37:02.304Z,13.86
2022-11-08T09:39:28.412Z,13.89
2022-11-08T09:41:55.752Z,13.91
2022-11-08T09:44:22.039Z,13.96
2022-11-08T09:46:48.148Z,14.04
2022-11-08T09:49:14.236Z,14.05
2022-11-08T09:51:40.388Z,14.15
2022-11-08T09:54:06.492Z,14.19
2022-11-08T09:56:32.593Z,14.24
2022-11-08T09:58:58.685Z,14.28
2022-11-08T10:01:27.446Z,14.35
2022-11-08T10:03:53.775Z,14.43
2022-11-08T10:06:19.930Z,14.53
2022-11-08T10:08:46.107Z,14.58
2022-11-08T10:11:12.200Z,14.57
2022-11-08T10:13:38.290Z,14.55
2022-11-08T10:16:04.447Z,14.66
2022-11-08T10:18:30.557Z,14.70
2022-11-08T10:20:56.668Z,14.75
2022-11-08T10:23:22.785Z,14.76
2022-11-08T10:25:48.911Z,14.78
2022-11-08T10:28:15.017Z,14.82
2022-11-08T10:30:41.442Z,14.74
2022-11-08T10:33:07.544Z,14.82
2022-11-08T10:35:33.636Z,14.75
2022-11-08T10:37:59.756Z,14.83
2022-11-08T10:40:25.857Z,14.81
2022-11-08T10:42:51.948Z,14.84
2022-11-08T10:45:18.059Z,14.84
2022-11-08T10:47:44.156Z,14.82
2022-11-08T10:50:10.251Z,14.77
2022-11-08T10:52:36.360Z,14.74
2022-11-08T10:55:02.453Z,14.73
2022-11-08T10:57:28.547Z,14.78
2022-11-08T10:59:54.664Z,14.79
2022-11-08T11:02:20.836Z,14.76
2022-11-08T11:04:46.939Z,14.84
2022-11-08T11:07:13.074Z,14.83
2022-11-08T11:09:39.200Z,14.88
2022-11-08T11:12:05.283Z,14.82
2022-11-08T11:14:31.423Z,14.79
2022-11-08T11:16:57.514Z,14.78
2022-11-08T11:19:23.616Z,14.73
2022-11-08T11:21:50.199Z,14.68
2022-11-08T11:24:19.233Z,14.72
2022-11-08T11:26:46.334Z,14.75
2022-11-08T11:29:12.436Z,14.68
2022-11-08T11:31:38.538Z,14.64
2022-11-08T11:34:04.638Z,14.70
2022-11-08T11:36:30.753Z,14.70
2022-11-08T11:38:56.863Z,14.66
2022-11-08T11:41:22.972Z,14.64
2022-11-08T11:43:49.139Z,14.70
2022-11-08T11:46:15.229Z,14.67
2022-11-08T11:48:41.345Z,14.74
2022-11-08T11:51:07.556Z,14.75
2022-11-08T11:53:33.709Z,14.73
2022-11-08T11:55:59.792Z,14.80
2022-11-08T11:58:25.903Z,14.79
2022-11-08T12:00:51.996Z,14.83
2022-11-08T12:03:18.430Z,14.77
2022-11-08T12:05:44.895Z,14.92
2022-11-08T12:08:10.986Z,14.89
2022-11-08T12:10:37.080Z,14.98
2022-11-08T12:13:03.210Z,14.90
2022-11-08T12:15:29.305Z,14.97
2022-11-08T12:17:55.405Z,15.03
2022-11-08T12:20:26.577Z,15.09
2022-11-08T12:22:53.327Z,15.13
2022-11-08T12:25:19.427Z,15.10
2022-11-08T12:27:45.528Z,15.20
2022-11-08T12:30:11.741Z,15.33
2022-11-08T12:32:37.919Z,15.42
2022-11-08T12:35:04.327Z,15.48
2022-11-08T12:37:30.430Z,15.53
2022-11-08T12:39:56.531Z,15.55
2022-11-08T12:42:22.632Z,15.59
2022-11-08T12:44:48.735Z,15.52
2022-11-08T12:47:14.838Z,15.46
2022-11-08T12:49:40.954Z,15.42
2022-11-08T12:52:07.053Z,15.50
2022-11-08T12:54:33.166Z,15.51
2022-11-08T12:56:59.269Z,15.58
2022-11-08T12:59:25.369Z,15.56
2022-11-08T13:01:51.468Z,15.52
2022-11-08T13:04:17.594Z,15.64
2022-11-08T13:06:43.727Z,15.67
2022-11-08T13:09:09.867Z,15.65
2022-11-08T13:11:35.982Z,15.67
2022-11-08T13:14:02.088Z,15.54
2022-11-08T13:16:28.176Z,15.54
2022-11-08T13:18:54.285Z,15.49
2022-11-08T13:21:20.382Z,15.58
2022-11-08T13:23:46.676Z,15.63
2022-11-08T13:26:12.807Z,15.63
2022-11-08T13:28:38.901Z,15.57
2022-11-08T13:31:04.994Z,15.61
2022-11-08T13:33:31.107Z,15.52
2022-11-08T13:35:57.219Z,15.46
2022-11-08T13:38:23.334Z,15.31
2022-11-08T13:40:54.802Z,15.29
2022-11-08T13:43:22.012Z,15.47
2022-11-08T13:45:48.111Z,15.37
2022-11-08T13:48:16.624Z,15.40
2022-11-08T13:50:46.095Z,15.38
2022-11-08T13:53:12.201Z,15.25
2022-11-08T13:55:38.318Z,15.26
2022-11-08T13:58:04.411Z,15.16
2022-11-08T14:00:30.511Z,15.16
2022-11-08T14:02:56.621Z,15.17
2022-11-08T14:05:22.730Z,15.15
2022-11-08T14:07:48.852Z,15.11
2022-11-08T14:10:14.965Z,15.03
2022-11-08T14:12:41.047Z,15.02
2022-11-08T14:15:07.142Z,15.06
2022-11-08T14:17:33.256Z,15.02
2022-11-08T14:19:59.345Z,14.97
2022-11-08T14:22:25.437Z,14.93
2022-11-08T14:24:51.547Z,14.89
2022-11-08T14:27:17.633Z,14.89
2022-11-08T14:29:43.719Z,14.85
2022-11-08T14:32:09.820Z,14.85
2022-11-08T14:34:35.932Z,14.79
2022-11-08T14:37:02.030Z,14.77
2022-11-08T14:39:28.142Z,14.75
2022-11-08T14:41:54.245Z,14.72
2022-11-08T14:44:20.337Z,14.74
2022-11-08T14:46:46.440Z,14.69
2022-11-08T14:49:12.537Z,14.64
2022-11-08T14:51:38.642Z,14.64
2022-11-08T14:54:04.756Z,14.60
2022-11-08T14:56:30.853Z,14.52
2022-11-08T14:58:56.945Z,14.54
2022-11-08T15:01:23.126Z,14.55
2022-11-08T15:03:49.297Z,14.52
2022-11-08T15:06:15.424Z,14.48
2022-11-08T15:08:41.540Z,14.40
2022-11-08T15:11:07.630Z,14.37
2022-11-08T15:13:33.937Z,14.37
2022-11-08T15:16:00.071Z,14.43
2022-11-08T15:18:26.165Z,14.40
2022-11-08T15:20:52.256Z,14.32
2022-11-08T15:23:18.579Z,14.30
2022-11-08T15:25:45.009Z,14.24
2022-11-08T15:28:11.112Z,14.31
2022-11-08T15:30:37.242Z,14.20
2022-11-08T15:33:03.372Z,14.16
2022-11-08T15:35:29.496Z,14.14
2022-11-08T15:37:55.612Z,14.19
2022-11-08T15:40:21.716Z,14.07
2022-11-08T15:42:47.820Z,14.01
2022-11-08T15:45:13.981Z,14.02
2022-11-08T15:47:40.076Z,14.00
2022-11-08T15:50:06.181Z,13.97
2022-11-08T15:52:32.295Z,13.93
2022-11-08T15:54:58.385Z,13.97
2022-11-08T15:57:24.480Z,13.91
2022-11-08T15:59:50.601Z,13.90
2022-11-08T16:02:16.695Z,13.87
2022-11-08T16:04:42.798Z,13.84
2022-11-08T16:07:08.979Z,13.90
2022-11-08T16:09:35.168Z,13.86
2022-11-08T16:12:01.270Z,13.88
2022-11-08T16:14:27.399Z,13.88
2022-11-08T16:16:53.524Z,13.85
2022-11-08T16:19:19.632Z,13.91
2022-11-08T16:21:45.757Z,13.85
2022-11-08T16:24:11.849Z,13.87
2022-11-08T16:26:37.957Z,13.85
2022-11-08T16:29:04.058Z,13.83
2022-11-08T16:31:30.173Z,13.84
2022-11-08T16:33:56.277Z,13.78
2022-11-08T16:36:22.390Z,13.79
2022-11-08T16:38:48.491Z,13.80
2022-11-08T16:41:14.595Z,13.79
2022-11-08T16:43:40.713Z,13.79
2022-11-08T16:46:07.393Z,13.83
2022-11-08T16:48:33.628Z,13.83
2022-11-08T16:51:00.221Z,13.85
2022-11-08T16:53:26.337Z,13.88
2022-11-08T16:55:52.433Z,13.86
2022-11-08T16:58:18.748Z,13.92
2022-11-08T17:00:45.138Z,13.94
2022-11-08T17:03:11.238Z,13.91
2022-11-08T17:05:37.366Z,13.89
2022-11-08T17:08:03.468Z,13.87
2022-11-08T17:10:29.576Z,13.85
2022-11-08T17:12:55.700Z,13.85
2022-11-08T17:15:21.806Z,13.87
2022-11-08T17:17:47.916Z,13.88
2022-11-08T17:20:14.019Z,13.89
2022-11-08T17:22:40.112Z,13.87
2022-11-08T17:25:06.211Z,13.88
2022-11-08T17:27:32.664Z,13.90
2022-11-08T17:29:58.820Z,13.91
2022-11-08T17:32:24.955Z,13.91
2022-11-08T17:34:51.064Z,13.91
2022-11-08T17:37:17.171Z,13.98
2022-11-08T17:39:43.263Z,14.00
2022-11-08T17:42:09.385Z,13.99
2022-11-08T17:44:35.472Z,14.00
2022-11-08T17:47:01.581Z,14.03
2022-11-08T17:49:27.695Z,14.03
2022-11-08T17:51:53.797Z,14.03
2022-11-08T17:54:19.887Z,13.98
2022-11-08T17:56:45.997Z,14.00
2022-11-08T17:59:12.086Z,14.04
2022-11-08T18:01:38.352Z,14.05
2022-11-08T18:04:04.617Z,14.05
2022-11-08T18:06:30.756Z,14.08
2022-11-08T18:08:56.896Z,14.10
2022-11-08T18:11:23.008Z,14.09
2022-11-08T18:13:49.157Z,14.05
2022-11-08T18:16:15.259Z,14.05
2022-11-08T18:18:41.388Z,14.04
2022-11-08T18:21:07.488Z,13.98
2022-11-08T18:23:33.580Z,14.00
2022-11-08T18:25:59.682Z,14.07
2022-11-08T18:28:25.784Z,14.05
2022-11-08T18:30:51.883Z,14.01
2022-11-08T18:33:18.195Z,14.00
2022-11-08T18:35:44.473Z,14.01
2022-11-08T18:38:10.626Z,14.01
2022-11-08T18:40:36.756Z,14.03
2022-11-08T18:43:02.837Z,14.01
2022-11-08T18:45:28.952Z,14.00
2022-11-08T18:47:55.105Z,14.04
2022-11-08T18:50:21.200Z,14.02
2022-11-08T18:52:47.346Z,14.04
2022-11-08T18:55:13.774Z,14.00
2022-11-08T18:57:39.888Z,13.97
2022-11-08T19:00:06.012Z,13.97
2022-11-08T19:02:32.144Z,13.98
2022-11-08T19:04:58.261Z,14.00
2022-11-08T19:07:24.382Z,14.04
2022-11-08T19:09:50.525Z,14.05
2022-11-08T19:12:16.635Z,14.04
2022-11-08T19:14:42.737Z,14.02
2022-11-08T19:17:08.854Z,14.02
2022-11-08T19:19:34.952Z,13.98
2022-11-08T19:22:01.043Z,14.01
2022-11-08T19:24:27.156Z,14.02
2022-11-08T19:26:53.260Z,13.99
2022-11-08T19:29:19.366Z,14.00
2022-11-08T19:31:45.507Z,13.99
2022-11-08T19:34:11.604Z,13.98
2022-11-08T19:36:37.700Z,14.00
2022-11-08T19:39:03.821Z,14.00
2022-11-08T19:41:29.913Z,14.01
2022-11-08T19:43:56.001Z,14.04
2022-11-08T19:46:22.147Z,14.02
2022-11-08T19:48:48.253Z,14.09
2022-11-08T19:51:14.351Z,14.07
2022-11-08T19:53:40.451Z,14.12
2022-11-08T19:56:06.547Z,14.14
2022-11-08T19:58:32.645Z,14.15
2022-11-08T20:00:58.792Z,14.15
2022-11-08T20:03:24.878Z,14.13
2022-11-08T20:05:50.960Z,14.10
2022-11-08T20:08:17.398Z,14.07
2022-11-08T20:10:43.697Z,14.05
2022-11-08T20:13:09.795Z,14.05
2022-11-08T20:15:35.921Z,14.09
2022-11-08T20:18:02.021Z,14.06
2022-11-08T20:20:28.113Z,14.02
2022-11-08T20:22:54.215Z,14.02
2022-11-08T20:25:20.300Z,14.01
2022-11-08T20:27:46.506Z,14.02
2022-11-08T20:30:12.617Z,14.01
2022-11-08T20:32:38.716Z,13.96
2022-11-08T20:35:04.833Z,13.96
2022-11-08T20:37:30.940Z,13.96
2022-11-08T20:39:57.051Z,13.93
2022-11-08T20:42:23.171Z,13.88
2022-11-08T20:44:49.301Z,13.89
2022-11-08T20:47:15.393Z,13.88
2022-11-08T20:49:41.482Z,13.86
2022-11-08T20:52:07.590Z,13.85
2022-11-08T20:54:33.690Z,13.83
2022-11-08T20:56:59.788Z,13.83
2022-11-08T20:59:25.904Z,13.82
2022-11-08T21:01:52.062Z,13.81
2022-11-08T21:04:18.209Z,13.82
2022-11-08T21:06:44.378Z,13.77
2022-11-08T21:09:34.564Z,13.78
2022-11-08T21:11:56.612Z,13.79
2022-11-08T21:14:22.694Z,13.80
2022-11-08T21:17:19.540Z,13.80
2022-11-08T21:19:34.863Z,13.78
2022-11-08T21:22:00.960Z,13.79
2022-11-08T21:24:27.039Z,13.82
2022-11-08T21:26:53.183Z,13.85
2022-11-08T21:29:19.290Z,13.84
2022-11-08T21:31:45.378Z,13.85
2022-11-08T21:34:11.489Z,13.85
2022-11-08T21:36:37.735Z,13.89
2022-11-08T21:39:03.980Z,13.86
2022-11-08T21:41:30.352Z,13.90
2022-11-08T21:43:56.628Z,13.89
2022-11-08T21:46:22.911Z,13.87
2022-11-08T21:48:49.218Z,13.87
2022-11-08T21:51:15.419Z,13.88
2022-11-08T21:53:52.379Z,13.84
2022-11-08T21:56:20.633Z,13.83
2022-11-08T21:58:46.838Z,13.84
2022-11-08T22:01:13.071Z,13.87
2022-11-08T22:03:39.403Z,13.87
2022-11-08T22:06:07.389Z,13.85
2022-11-08T22:08:33.635Z,13.88
2022-11-08T22:11:00.368Z,13.89
2022-11-08T22:13:26.631Z,13.91
2022-11-08T22:15:52.883Z,13.91
2022-11-08T22:18:26.484Z,13.90
2022-11-08T22:21:05.438Z,13.91
2022-11-08T22:23:31.745Z,13.92
2022-11-08T22:25:57.948Z,13.94
2022-11-08T22:28:24.199Z,13.91
2022-11-08T22:30:50.502Z,13.89
2022-11-08T22:33:16.745Z,13.86
2022-11-08T22:35:42.993Z,13.88
2022-11-08T22:38:09.257Z,13.83
2022-11-08T22:40:35.501Z,13.82
2022-11-08T22:43:01.724Z,13.83
2022-11-08T22:45:27.969Z,13.83
2022-11-08T22:47:54.220Z,13.84
2022-11-08T22:50:20.346Z,13.79
2022-11-08T22:52:46.457Z,13.79
2022-11-08T22:55:12.542Z,13.76
2022-11-08T22:57:38.633Z,13.76
2022-11-08T23:00:04.750Z,13.76
2022-11-08T23:02:33.265Z,13.74
2022-11-08T23:04:59.548Z,13.72
2022-11-08T23:07:25.654Z,13.72
2022-11-08T23:09:51.736Z,13.68
2022-11-08T23:12:17.829Z,13.69
2022-11-08T23:14:43.926Z,13.65
2022-11-08T23:17:10.010Z,13.70
2022-11-08T23:19:36.102Z,13.68
2022-11-08T23:22:02.208Z,13.68
2022-11-08T23:24:28.312Z,13.63
2022-11-08T23:26:54.419Z,13.63
2022-11-08T23:29:20.524Z,13.64
2022-11-08T23:31:46.611Z,13.65
2022-11-08T23:34:12.708Z,13.62
2022-11-08T23:36:39.294Z,13.63
2022-11-08T23:39:05.398Z,13.65
2022-11-08T23:41:31.487Z,13.62
2022-11-08T23:43:57.596Z,13.63
2022-11-08T23:46:23.696Z,13.67
2022-11-08T23:48:49.795Z,13.64
2022-11-08T23:51:15.898Z,13.65
2022-11-08T23:53:41.994Z,13.66
2022-11-08T23:56:08.092Z,13.69
2022-11-08T23:58:34.219Z,13.68
